Terminal Aerodrome Forecast
Issued by NWS Portland, ME

Current Version | Previous Version | Text Only | Print | Product List | Glossary On
Versions: 1 2 3 4 5 6 7 8 9 10 11 12 13 14 15 16 17 18 19 20 21
149
FTUS41 KGYX 230836 AAA
TAFCON
TAF AMD
KCON 230836Z 2309/2406 32009G20KT P6SM SKC
     FM231300 29007KT P6SM SKC=

USA.gov is the U.S. government's official web portal to all federal, state and local government web resources and services.